Hillsboro, North Carolina
Current Conditions -  °F | °C
As of 6:56 PM on Thursday 25 Dec 2014 (Local Time) from KIGX Reporting Station
Clear Clear  
Wind Chill: 43°   Ceiling: Unl
Heat Index: 43°   Visibility: 10mi
Dew Point: 35°   Wind: 0mph
Humidity: 74%   Direction: NA
Pressure: 30.2"   Gusts: NA
Location:  36.0821°N, 79.0824°W
Report Text: KIGX 252356Z AUTO 00000KT 10SM CLR 06/02 A3020 RMK AO2 SLP226 T00610017 10128 20056 53027
Loading
Personal Weather Stations






























Interactive Weather Map New forecast layout! Learn more

10-Day Weather Forecast

Advertisements
Track Severe Weather on mobile